Time;durP1;ratioP1;P1;durP2;ratioP2;P2;SDS_P1;SDS_P2;PMS_P1;PMS_P2;Temp;Humidity;BMP_temperature;BMP_pressure;BME280_temperature;BME280_humidity;BME280_pressure;Samples;Min_cycle;Max_cycle;Signal;HPM_P1;HPM_P2
2021/01/30 00:01:01;;;;;;;1.60;1.33;;;10.70;73.30;;;;;;6186007;23;20413;-74
2021/01/30 00:03:27;;;;;;;2.27;1.03;;;10.60;73.30;;;;;;6186063;23;20424;-74
2021/01/30 00:05:53;;;;;;;1.00;0.90;;;10.60;72.60;;;;;;6186129;23;20410;-74
2021/01/30 00:08:20;;;;;;;1.37;1.00;;;10.60;73.10;;;;;;6185736;23;20420;-74
2021/01/30 00:10:47;;;;;;;1.30;1.20;;;10.60;72.70;;;;;;6186038;23;20782;-74
2021/01/30 00:13:15;;;;;;;1.80;1.60;;;10.60;72.10;;;;;;6186517;23;20425;-74
2021/01/30 00:15:42;;;;;;;5.90;4.33;;;10.60;72.20;;;;;;6186011;23;20942;-74
2021/01/30 00:18:09;;;;;;;1.60;1.30;;;10.60;71.30;;;;;;6183951;23;20488;-73
2021/01/30 00:20:37;;;;;;;1.00;0.80;;;10.60;72.00;;;;;;6185594;23;20423;-74
2021/01/30 00:23:04;;;;;;;3.20;0.83;;;10.70;72.40;;;;;;6186122;23;20412;-74
2021/01/30 00:25:33;;;;;;;2.60;1.30;;;10.70;71.90;;;;;;6185298;23;20428;-74
2021/01/30 00:28:00;;;;;;;0.80;0.80;;;10.60;70.40;;;;;;6185720;23;20412;-74
2021/01/30 00:30:30;;;;;;;1.30;1.07;;;10.50;70.30;;;;;;6185908;23;20456;-74
2021/01/30 00:32:57;;;;;;;1.10;0.50;;;10.40;71.10;;;;;;6186215;23;20765;-74
2021/01/30 00:35:27;;;;;;;2.77;1.03;;;10.40;70.90;;;;;;6185484;23;20410;-74
2021/01/30 00:37:53;;;;;;;1.07;0.67;;;10.20;69.90;;;;;;6186281;23;20412;-74
2021/01/30 00:40:20;;;;;;;1.00;0.90;;;10.20;70.80;;;;;;6185294;23;20414;-73
2021/01/30 00:42:47;;;;;;;1.33;1.07;;;10.20;70.70;;;;;;6183477;23;20408;-74
2021/01/30 00:45:16;;;;;;;2.30;1.33;;;10.30;71.10;;;;;;6185830;23;20427;-74
2021/01/30 00:47:43;;;;;;;2.50;0.83;;;10.30;70.50;;;;;;6185603;23;20412;-74
2021/01/30 00:50:11;;;;;;;0.70;0.70;;;10.30;70.40;;;;;;6185346;23;20450;-73
2021/01/30 00:52:42;;;;;;;1.10;0.87;;;10.30;70.30;;;;;;6185480;23;20410;-74
2021/01/30 00:55:10;;;;;;;1.53;0.60;;;10.30;70.40;;;;;;6185942;23;20496;-74
2021/01/30 00:57:36;;;;;;;2.00;1.00;;;10.30;70.00;;;;;;6185394;23;20934;-74
2021/01/30 01:00:07;;;;;;;0.60;0.60;;;10.30;70.40;;;;;;6185577;23;20471;-74
2021/01/30 01:02:35;;;;;;;0.93;0.90;;;10.20;69.80;;;;;;6184912;23;20418;-74
2021/01/30 01:05:04;;;;;;;1.70;1.00;;;10.20;69.70;;;;;;6185877;23;20463;-74
2021/01/30 01:07:31;;;;;;;1.20;1.00;;;10.30;69.60;;;;;;6185802;23;20473;-74
2021/01/30 01:09:57;;;;;;;1.10;1.00;;;10.20;69.80;;;;;;6183972;23;20453;-74
2021/01/30 01:12:24;;;;;;;0.87;0.87;;;10.30;70.20;;;;;;6185719;23;20429;-74
2021/01/30 01:14:50;;;;;;;2.10;0.90;;;10.30;69.50;;;;;;6186329;23;20406;-74
2021/01/30 01:17:17;;;;;;;5.23;1.93;;;10.20;69.70;;;;;;6186651;23;20744;-73
2021/01/30 01:19:43;;;;;;;2.47;2.00;;;10.20;69.70;;;;;;6184939;23;20415;-74
2021/01/30 01:22:10;;;;;;;3.23;2.30;;;10.20;69.90;;;;;;6185674;23;20468;-74
2021/01/30 01:24:37;;;;;;;2.40;0.83;;;10.20;69.90;;;;;;6185553;23;20426;-74
2021/01/30 01:27:04;;;;;;;0.60;0.60;;;10.20;70.30;;;;;;6185582;23;20410;-74
2021/01/30 01:29:30;;;;;;;0.70;0.70;;;10.30;70.40;;;;;;6185364;23;20452;-74
2021/01/30 01:31:57;;;;;;;3.33;0.70;;;10.30;70.20;;;;;;6184980;23;20942;-74
2021/01/30 01:34:27;;;;;;;0.80;0.80;;;10.40;70.50;;;;;;6185517;23;20472;-74
2021/01/30 01:36:58;;;;;;;1.00;0.80;;;10.40;70.10;;;;;;6183094;23;20413;-74
2021/01/30 01:39:26;;;;;;;1.30;0.80;;;10.50;70.20;;;;;;6185219;23;20428;-74
2021/01/30 01:41:57;;;;;;;1.33;0.80;;;10.50;70.20;;;;;;6184944;23;20930;-74
2021/01/30 01:44:23;;;;;;;0.80;0.60;;;10.50;69.70;;;;;;6184877;23;20417;-74
2021/01/30 01:46:52;;;;;;;1.23;0.50;;;10.50;69.90;;;;;;6185166;23;20735;-74
2021/01/30 01:49:27;;;;;;;1.93;1.00;;;10.50;70.00;;;;;;6185149;23;20444;-74
2021/01/30 01:52:03;;;;;;;0.87;0.80;;;10.60;70.00;;;;;;6185036;23;20416;-74
2021/01/30 01:54:32;;;;;;;1.67;0.83;;;10.60;69.90;;;;;;6185160;23;20411;-74
2021/01/30 01:57:04;;;;;;;1.37;0.87;;;10.60;70.00;;;;;;6184609;23;20934;-74
2021/01/30 01:59:31;;;;;;;2.23;1.30;;;10.60;69.90;;;;;;6184947;23;20460;-74
2021/01/30 02:01:57;;;;;;;5.47;4.00;;;10.70;70.00;;;;;;6183196;23;20411;-74
2021/01/30 02:04:24;;;;;;;2.60;1.07;;;10.70;69.90;;;;;;6184521;23;20930;-74
2021/01/30 02:06:53;;;;;;;1.70;0.90;;;10.70;69.90;;;;;;6185224;23;20423;-74
2021/01/30 02:09:22;;;;;;;0.70;0.70;;;10.80;70.00;;;;;;6184803;23;20453;-74
2021/01/30 02:11:59;;;;;;;0.90;0.90;;;10.80;70.10;;;;;;6184524;23;20417;-74
2021/01/30 02:14:28;;;;;;;0.60;0.60;;;10.80;70.00;;;;;;6184899;23;20421;-74
2021/01/30 02:17:01;;;;;;;1.43;0.70;;;10.70;70.00;;;;;;6185085;23;20413;-74
2021/01/30 02:20:04;;;;;;;1.47;1.20;;;10.80;70.30;;;;;;6184688;23;20932;-75
2021/01/30 02:23:00;;;;;;;1.20;1.03;;;10.80;70.40;;;;;;6184617;23;20417;-74
2021/01/30 02:26:14;;;;;;;1.47;0.80;;;10.80;70.40;;;;;;6184548;23;20442;-74
2021/01/30 02:28:50;;;;;;;1.60;1.07;;;10.80;70.50;;;;;;6062564;23;20417;-74
2021/01/30 02:31:44;;;;;;;0.93;0.50;;;10.80;70.60;;;;;;6064895;23;20511;-74
2021/01/30 02:34:40;;;;;;;2.77;2.53;;;10.90;70.70;;;;;;6148173;23;20414;-74
2021/01/30 02:37:11;;;;;;;1.23;1.13;;;10.90;70.70;;;;;;6181950;23;20751;-74
2021/01/30 02:39:40;;;;;;;0.77;0.77;;;10.80;70.60;;;;;;6184936;23;20444;-74
2021/01/30 02:42:15;;;;;;;3.00;0.90;;;10.80;70.70;;;;;;6184358;23;20421;-74
2021/01/30 02:44:50;;;;;;;2.53;0.70;;;10.80;70.60;;;;;;6184773;23;20474;-74
2021/01/30 02:47:21;;;;;;;1.10;1.00;;;10.80;70.60;;;;;;6184401;23;20972;-74
2021/01/30 02:49:52;;;;;;;1.20;0.70;;;10.80;70.60;;;;;;6184568;23;20510;-74
2021/01/30 02:52:24;;;;;;;1.33;1.33;;;10.80;70.60;;;;;;6184208;23;20413;-74
2021/01/30 02:54:54;;;;;;;0.60;0.60;;;10.70;70.60;;;;;;6183258;23;20409;-74
2021/01/30 02:57:23;;;;;;;0.50;0.50;;;10.60;70.80;;;;;;6184070;23;20418;-74
2021/01/30 02:59:54;;;;;;;1.17;0.70;;;10.60;71.10;;;;;;6184669;23;20413;-74
2021/01/30 03:02:24;;;;;;;2.77;1.00;;;10.50;71.10;;;;;;6184798;23;20501;-74
2021/01/30 03:04:53;;;;;;;1.10;1.10;;;10.50;71.30;;;;;;6184611;23;20412;-74
2021/01/30 03:07:51;;;;;;;0.70;0.70;;;10.40;71.20;;;;;;6185335;23;20474;-74
2021/01/30 03:10:27;;;;;;;0.67;0.67;;;10.30;71.30;;;;;;6184806;23;20467;-74
2021/01/30 03:13:00;;;;;;;1.03;0.60;;;10.20;71.50;;;;;;6184149;23;20420;-74
2021/01/30 03:15:32;;;;;;;1.30;0.80;;;10.20;71.70;;;;;;6184551;23;20412;-74
2021/01/30 03:18:02;;;;;;;0.50;0.50;;;10.20;71.90;;;;;;6184383;23;20417;-74
2021/01/30 03:20:32;;;;;;;0.70;0.70;;;10.20;72.10;;;;;;6184732;23;20414;-74
2021/01/30 03:23:01;;;;;;;0.70;0.70;;;10.20;72.20;;;;;;6182766;23;20416;-74
2021/01/30 03:25:30;;;;;;;0.60;0.60;;;10.20;72.40;;;;;;6187107;23;20470;-74
2021/01/30 03:27:59;;;;;;;0.87;0.60;;;10.30;72.50;;;;;;6186035;23;20413;-74
2021/01/30 03:30:26;;;;;;;0.90;0.90;;;10.30;72.30;;;;;;6186567;23;20481;-74
2021/01/30 03:32:53;;;;;;;1.40;0.60;;;10.40;72.20;;;;;;6186395;23;20475;-74
2021/01/30 03:35:20;;;;;;;1.07;0.87;;;10.40;71.90;;;;;;6185968;23;20413;-74
2021/01/30 03:37:47;;;;;;;0.70;0.70;;;10.40;71.90;;;;;;6186285;23;20423;-74
2021/01/30 03:40:15;;;;;;;0.60;0.60;;;10.40;72.10;;;;;;6186080;23;20921;-74
2021/01/30 03:42:44;;;;;;;0.87;0.63;;;10.50;72.00;;;;;;6185948;23;20418;-74
2021/01/30 03:45:13;;;;;;;1.90;1.10;;;10.50;72.10;;;;;;6185950;23;20423;-74
2021/01/30 03:47:40;;;;;;;1.10;1.00;;;10.50;72.00;;;;;;6185998;23;20405;-74
2021/01/30 03:50:09;;;;;;;0.70;0.70;;;10.60;72.10;;;;;;6184933;23;20992;-74
2021/01/30 03:52:36;;;;;;;0.60;0.60;;;10.60;71.90;;;;;;6186057;23;20414;-74
2021/01/30 03:55:03;;;;;;;0.60;0.60;;;10.60;71.20;;;;;;6185797;23;20899;-74
2021/01/30 03:57:30;;;;;;;0.77;0.77;;;10.60;71.50;;;;;;6185932;23;20423;-74
2021/01/30 03:59:57;;;;;;;0.83;0.70;;;10.60;71.50;;;;;;6185942;23;20432;-74
2021/01/30 04:02:24;;;;;;;1.20;0.83;;;10.60;71.40;;;;;;6186052;23;20421;-73
2021/01/30 04:04:50;;;;;;;2.50;0.80;;;10.60;71.50;;;;;;6185710;23;20444;-74
2021/01/30 04:07:17;;;;;;;1.00;0.60;;;10.60;71.50;;;;;;6186386;23;20440;-74
2021/01/30 04:09:43;;;;;;;1.17;0.80;;;10.60;71.60;;;;;;6185498;23;20837;-75
2021/01/30 04:12:10;;;;;;;0.63;0.63;;;10.50;71.50;;;;;;6185542;23;20411;-74
2021/01/30 04:14:37;;;;;;;1.20;0.80;;;10.60;71.40;;;;;;6183392;23;20416;-74
2021/01/30 04:17:04;;;;;;;0.93;0.93;;;10.50;71.20;;;;;;6186002;23;20497;-74
2021/01/30 04:19:31;;;;;;;0.50;0.50;;;10.50;71.40;;;;;;6185665;23;20420;-74
2021/01/30 04:21:57;;;;;;;1.13;1.03;;;10.50;71.50;;;;;;6185754;23;20754;-74
2021/01/30 04:24:24;;;;;;;2.63;1.00;;;10.40;71.00;;;;;;6185714;23;20410;-74
2021/01/30 04:26:50;;;;;;;0.70;0.70;;;10.40;71.10;;;;;;6185905;23;20413;-74
2021/01/30 04:29:17;;;;;;;1.53;1.00;;;10.30;71.30;;;;;;6185698;23;20427;-75
2021/01/30 04:31:44;;;;;;;4.20;0.70;;;10.30;71.10;;;;;;6185562;23;20418;-76
2021/01/30 04:34:11;;;;;;;1.33;0.90;;;10.30;71.40;;;;;;6185797;23;20758;-76
2021/01/30 04:36:38;;;;;;;0.87;0.70;;;10.30;71.60;;;;;;6185286;23;20973;-77
2021/01/30 04:39:05;;;;;;;2.17;0.77;;;10.30;71.70;;;;;;6185969;23;20422;-76
2021/01/30 04:41:41;;;;;;;1.47;1.37;;;10.30;71.80;;;;;;6183337;23;20475;-76
2021/01/30 04:44:13;;;;;;;1.50;1.07;;;10.30;71.60;;;;;;6185964;23;20435;-77
2021/01/30 04:47:04;;;;;;;0.80;0.80;;;10.40;71.70;;;;;;6185790;23;20738;-76
2021/01/30 04:49:39;;;;;;;2.43;0.97;;;10.40;71.70;;;;;;6185546;23;20416;-76
2021/01/30 04:52:11;;;;;;;1.43;0.83;;;10.40;71.20;;;;;;6186037;23;20443;-77
2021/01/30 04:54:50;;;;;;;1.97;1.17;;;10.40;71.40;;;;;;6185645;23;20444;-77
2021/01/30 04:57:45;;;;;;;2.00;1.00;;;10.40;71.60;;;;;;6185613;23;20409;-77
2021/01/30 05:00:39;;;;;;;1.90;1.30;;;10.40;71.60;;;;;;6182092;23;20974;-76
2021/01/30 05:03:42;;;;;;;3.07;0.90;;;10.50;71.60;;;;;;6185564;23;20457;-76
2021/01/30 05:06:14;;;;;;;1.17;0.93;;;10.50;71.50;;;;;;6180527;23;20745;-76
2021/01/30 05:08:45;;;;;;;4.03;1.23;;;10.50;71.30;;;;;;6181593;23;20761;-76
2021/01/30 05:11:16;;;;;;;1.63;0.70;;;10.50;71.30;;;;;;6185165;23;20543;-76
2021/01/30 05:13:51;;;;;;;6.20;1.40;;;10.50;71.10;;;;;;6185161;23;20413;-77
2021/01/30 05:16:21;;;;;;;1.13;0.90;;;10.50;71.20;;;;;;6184929;23;20459;-77
2021/01/30 05:18:52;;;;;;;1.90;0.90;;;10.50;71.20;;;;;;6182850;23;20417;-77
2021/01/30 05:21:22;;;;;;;3.43;2.80;;;10.60;71.20;;;;;;6184681;23;20902;-76
2021/01/30 05:23:51;;;;;;;2.93;0.93;;;10.60;71.00;;;;;;6185519;23;20412;-77
2021/01/30 05:26:29;;;;;;;2.10;0.80;;;10.50;70.80;;;;;;6184903;23;20452;-75
2021/01/30 05:29:05;;;;;;;3.73;1.20;;;10.50;71.50;;;;;;6185258;23;20470;-76
2021/01/30 05:31:40;;;;;;;1.80;0.80;;;10.50;70.50;;;;;;6184756;23;20502;-76
2021/01/30 05:34:12;;;;;;;1.30;1.20;;;10.50;70.60;;;;;;6184520;23;20414;-75
2021/01/30 05:36:46;;;;;;;2.70;1.43;;;10.50;70.50;;;;;;6182870;23;20462;-75
2021/01/30 05:39:29;;;;;;;2.70;1.00;;;10.40;70.50;;;;;;6185470;23;20412;-75
2021/01/30 05:42:05;;;;;;;1.53;1.37;;;10.40;70.40;;;;;;6184665;23;20424;-76
2021/01/30 05:44:41;;;;;;;2.23;1.50;;;10.40;70.40;;;;;;6184676;23;20933;-74
2021/01/30 05:47:14;;;;;;;1.73;1.07;;;10.50;70.30;;;;;;6183747;23;20753;-74
2021/01/30 05:49:57;;;;;;;2.20;1.80;;;10.40;70.10;;;;;;6183590;23;20447;-74
2021/01/30 05:52:29;;;;;;;0.80;0.80;;;10.50;70.20;;;;;;6184867;23;20456;-74
2021/01/30 05:54:56;;;;;;;5.50;1.13;;;10.50;70.00;;;;;;6185513;23;20415;-76
2021/01/30 05:57:22;;;;;;;5.23;1.37;;;10.40;69.60;;;;;;6184391;23;20425;-75
2021/01/30 05:59:53;;;;;;;4.40;1.97;;;10.40;69.40;;;;;;6184617;23;20747;-75
2021/01/30 06:02:21;;;;;;;2.57;1.83;;;10.40;69.60;;;;;;6182552;23;20913;-75
2021/01/30 06:04:49;;;;;;;5.50;1.30;;;10.50;69.60;;;;;;6184668;23;20417;-75
2021/01/30 06:07:34;;;;;;;3.63;1.50;;;10.50;69.40;;;;;;6183689;23;20417;-75
2021/01/30 06:10:23;;;;;;;7.33;1.80;;;10.40;69.20;;;;;;6184567;23;20454;-75
2021/01/30 06:13:07;;;;;;;5.70;1.67;;;10.50;69.10;;;;;;6183768;23;20411;-75
2021/01/30 06:15:36;;;;;;;8.47;1.60;;;10.50;69.00;;;;;;6185066;23;20440;-74
2021/01/30 06:18:33;;;;;;;2.40;1.20;;;10.40;68.80;;;;;;6184304;23;20412;-75
2021/01/30 06:21:09;;;;;;;5.33;1.73;;;10.50;68.50;;;;;;6184462;23;20411;-75
2021/01/30 06:23:38;;;;;;;3.73;1.43;;;10.40;68.70;;;;;;6184848;23;20420;-74
2021/01/30 06:26:14;;;;;;;2.13;1.93;;;10.40;68.60;;;;;;6185101;23;20466;-74
2021/01/30 06:28:45;;;;;;;6.30;2.47;;;10.40;68.70;;;;;;6182672;23;20495;-75
2021/01/30 06:31:28;;;;;;;3.47;1.50;;;10.50;68.80;;;;;;6184648;23;20495;-75
2021/01/30 06:34:01;;;;;;;4.43;1.77;;;10.50;68.50;;;;;;6183766;23;20932;-75
2021/01/30 06:36:29;;;;;;;6.90;1.53;;;10.50;68.70;;;;;;6184696;23;20463;-75
2021/01/30 06:38:59;;;;;;;2.63;1.70;;;10.50;68.60;;;;;;6184425;23;20413;-74
2021/01/30 06:41:29;;;;;;;3.07;1.50;;;10.50;68.50;;;;;;6184915;23;20743;-75
2021/01/30 06:44:06;;;;;;;3.40;1.80;;;10.50;68.20;;;;;;6184474;23;20432;-75
2021/01/30 06:46:34;;;;;;;4.63;1.87;;;10.50;68.10;;;;;;6184317;23;20423;-73
2021/01/30 06:49:16;;;;;;;4.90;1.63;;;10.50;68.20;;;;;;6184203;23;20435;-74
2021/01/30 06:51:43;;;;;;;6.20;2.70;;;10.50;68.90;;;;;;6184937;23;20452;-74
2021/01/30 06:54:22;;;;;;;5.60;1.60;;;10.50;68.10;;;;;;6184501;23;20910;-75
2021/01/30 06:57:01;;;;;;;4.20;1.60;;;10.50;68.10;;;;;;6183323;23;20412;-75
2021/01/30 06:59:30;;;;;;;9.33;1.87;;;10.50;68.10;;;;;;6186232;23;20412;-75
2021/01/30 07:01:58;;;;;;;4.57;1.90;;;10.50;67.90;;;;;;6185979;23;20911;-73
2021/01/30 07:05:13;;;;;;;5.17;1.90;;;10.50;67.70;;;;;;6185991;23;20420;-73
2021/01/30 07:07:53;;;;;;;2.43;1.73;;;10.50;67.70;;;;;;6185686;23;20409;-73
2021/01/30 07:10:43;;;;;;;2.20;1.57;;;10.50;68.00;;;;;;6186444;23;20833;-73
2021/01/30 07:13:30;;;;;;;3.17;1.73;;;10.50;67.90;;;;;;6186355;23;20405;-73
2021/01/30 07:16:06;;;;;;;2.10;1.87;;;10.50;67.90;;;;;;6186583;23;20417;-73
2021/01/30 07:18:38;;;;;;;3.83;1.93;;;10.50;67.90;;;;;;6186673;23;20417;-73
2021/01/30 07:21:15;;;;;;;4.63;2.00;;;10.50;67.90;;;;;;6184987;23;20420;-73
2021/01/30 07:23:49;;;;;;;3.57;2.10;;;10.50;67.80;;;;;;6186520;23;20470;-73
2021/01/30 07:26:23;;;;;;;6.30;2.40;;;10.40;67.60;;;;;;6186941;23;20935;-73
2021/01/30 07:28:56;;;;;;;13.03;2.00;;;10.50;67.90;;;;;;6186873;23;20407;-73
2021/01/30 07:31:30;;;;;;;3.97;2.00;;;10.50;67.90;;;;;;6186592;23;20456;-73
2021/01/30 07:34:03;;;;;;;3.40;1.83;;;10.50;67.70;;;;;;6186899;23;20404;-73
2021/01/30 07:36:34;;;;;;;8.37;2.40;;;10.50;67.50;;;;;;6186332;23;20895;-73
2021/01/30 07:39:09;;;;;;;10.57;2.10;;;10.60;67.50;;;;;;6186472;23;20421;-73
2021/01/30 07:41:49;;;;;;;2.93;2.20;;;10.60;67.40;;;;;;6186116;23;20416;-73
2021/01/30 07:44:22;;;;;;;6.33;2.33;;;10.60;67.20;;;;;;6186189;23;20889;-73
2021/01/30 07:47:02;;;;;;;7.00;1.90;;;10.60;67.40;;;;;;6186431;23;20873;-73
2021/01/30 07:49:32;;;;;;;5.23;2.50;;;10.60;67.30;;;;;;6184609;23;20911;-73
2021/01/30 07:52:03;;;;;;;5.13;1.37;;;10.60;67.20;;;;;;6186455;23;20405;-73
2021/01/30 07:54:30;;;;;;;7.20;2.10;;;10.70;67.40;;;;;;6186476;23;20439;-73
2021/01/30 07:57:13;;;;;;;9.57;2.40;;;10.70;67.20;;;;;;6186319;23;20440;-73
2021/01/30 07:59:49;;;;;;;2.60;1.37;;;10.70;67.00;;;;;;6187054;23;20420;-73
2021/01/30 08:02:43;;;;;;;3.00;1.93;;;10.70;67.10;;;;;;6186172;23;20421;-73
2021/01/30 08:05:24;;;;;;;6.30;2.57;;;10.70;67.30;;;;;;6186111;23;20918;-73
2021/01/30 08:07:55;;;;;;;6.63;2.80;;;10.70;67.50;;;;;;6185932;23;20408;-73
2021/01/30 08:10:29;;;;;;;6.63;2.40;;;10.70;67.30;;;;;;6185998;23;20457;-73
2021/01/30 08:13:11;;;;;;;6.47;2.40;;;10.70;67.30;;;;;;6185753;23;20731;-73
2021/01/30 08:15:43;;;;;;;4.77;2.77;;;10.80;67.30;;;;;;6183842;23;20409;-73
2021/01/30 08:18:22;;;;;;;4.50;1.73;;;10.80;67.20;;;;;;6185830;23;20980;-73
2021/01/30 08:20:54;;;;;;;3.67;1.97;;;10.90;67.40;;;;;;6186141;23;20416;-73
2021/01/30 08:23:38;;;;;;;5.30;1.90;;;11.00;67.10;;;;;;6186398;23;20479;-73
2021/01/30 08:26:13;;;;;;;2.20;1.60;;;11.00;67.00;;;;;;6185773;23;20412;-73
2021/01/30 08:28:45;;;;;;;4.00;2.10;;;11.10;67.00;;;;;;6185565;23;20905;-73
2021/01/30 08:31:34;;;;;;;5.03;1.83;;;11.10;66.50;;;;;;6185671;23;21030;-73
2021/01/30 08:34:07;;;;;;;5.90;2.33;;;11.20;66.50;;;;;;6185728;23;20409;-73
2021/01/30 08:36:36;;;;;;;3.17;2.20;;;11.20;66.00;;;;;;6185932;23;20410;-73
2021/01/30 08:39:16;;;;;;;4.70;2.33;;;11.20;65.90;;;;;;6186078;23;20433;-73
2021/01/30 08:41:45;;;;;;;6.60;2.43;;;11.20;66.00;;;;;;6183508;23;20899;-73
2021/01/30 08:44:28;;;;;;;9.90;2.43;;;11.20;65.90;;;;;;6185554;23;20425;-73
2021/01/30 08:47:07;;;;;;;7.63;2.87;;;11.30;65.80;;;;;;6185810;23;20424;-73
2021/01/30 08:49:33;;;;;;;7.10;2.70;;;11.30;65.50;;;;;;6184241;23;20422;-73
2021/01/30 08:52:22;;;;;;;5.23;2.20;;;11.30;65.30;;;;;;6185501;23;20459;-73
2021/01/30 08:54:50;;;;;;;7.27;2.27;;;11.30;65.20;;;;;;6185052;23;20413;-73
2021/01/30 08:57:42;;;;;;;8.80;2.50;;;11.30;65.00;;;;;;6185364;23;20414;-73
2021/01/30 09:00:34;;;;;;;9.57;2.87;;;11.30;64.90;;;;;;6185153;23;20547;-73
2021/01/30 09:03:03;;;;;;;6.23;2.63;;;11.30;65.00;;;;;;6185357;23;20418;-73
2021/01/30 09:05:41;;;;;;;5.80;2.43;;;11.30;65.00;;;;;;6184688;23;20416;-73
2021/01/30 09:09:00;;;;;;;4.90;2.40;;;11.40;65.10;;;;;;6183466;23;20409;-73
2021/01/30 09:11:42;;;;;;;6.77;2.80;;;11.40;65.20;;;;;;6185186;23;20460;-73
2021/01/30 09:14:33;;;;;;;6.70;2.43;;;11.40;65.10;;;;;;6185523;23;20421;-73
2021/01/30 09:17:16;;;;;;;6.33;3.20;;;11.50;65.20;;;;;;6185443;23;20415;-73
2021/01/30 09:19:55;;;;;;;9.93;3.00;;;11.50;65.30;;;;;;6185004;23;20425;-73
2021/01/30 09:22:30;;;;;;;4.57;3.63;;;11.60;64.80;;;;;;6185009;23;20409;-73
2021/01/30 09:25:12;;;;;;;6.60;2.73;;;11.60;64.90;;;;;;6185030;23;20427;-73
2021/01/30 09:27:48;;;;;;;5.17;2.50;;;11.60;65.10;;;;;;6185311;23;20416;-72
2021/01/30 09:30:30;;;;;;;8.50;2.30;;;11.70;65.00;;;;;;6185314;23;20827;-73
2021/01/30 09:32:59;;;;;;;9.73;2.90;;;11.70;64.80;;;;;;6184400;23;20410;-73
2021/01/30 09:35:31;;;;;;;9.70;3.07;;;11.70;64.70;;;;;;6183927;23;20410;-73
2021/01/30 09:37:58;;;;;;;9.10;2.50;;;11.70;64.60;;;;;;6184840;23;20414;-73
2021/01/30 09:40:27;;;;;;;8.23;2.77;;;11.80;64.60;;;;;;6185543;23;20414;-74
2021/01/30 09:42:59;;;;;;;8.90;3.20;;;11.80;63.90;;;;;;6184933;23;20450;-73
2021/01/30 09:45:26;;;;;;;4.23;2.40;;;11.80;64.40;;;;;;6185248;23;20422;-74
2021/01/30 09:47:54;;;;;;;9.33;2.57;;;11.80;64.00;;;;;;6184942;23;20465;-73
2021/01/30 09:50:25;;;;;;;4.70;2.33;;;11.80;64.10;;;;;;6184656;23;20450;-73
2021/01/30 09:52:56;;;;;;;5.67;2.10;;;11.80;63.90;;;;;;6185564;23;20434;-74
2021/01/30 09:55:24;;;;;;;10.33;2.87;;;11.80;64.70;;;;;;6184769;23;20919;-74
2021/01/30 09:57:52;;;;;;;8.30;2.70;;;11.90;64.10;;;;;;6184782;23;20564;-73
2021/01/30 10:00:33;;;;;;;3.77;2.00;;;11.90;64.60;;;;;;6182641;23;20410;-73
2021/01/30 10:03:09;;;;;;;9.80;2.10;;;12.00;63.70;;;;;;6185090;23;20410;-74
2021/01/30 10:05:36;;;;;;;4.70;2.10;;;12.00;63.20;;;;;;6185037;23;20406;-73
2021/01/30 10:08:24;;;;;;;6.17;2.20;;;12.00;63.00;;;;;;6185091;23;20406;-73
2021/01/30 10:11:01;;;;;;;7.27;2.50;;;12.00;63.10;;;;;;6184673;23;20453;-74
2021/01/30 10:13:29;;;;;;;6.50;2.47;;;12.00;62.90;;;;;;6184973;23;20421;-74
2021/01/30 10:15:56;;;;;;;12.20;2.47;;;12.00;62.90;;;;;;6184643;23;20773;-74
2021/01/30 10:18:26;;;;;;;4.13;2.20;;;12.10;63.20;;;;;;6184779;23;20406;-73
2021/01/30 10:20:59;;;;;;;4.00;2.30;;;12.10;63.30;;;;;;6185729;23;20411;-74
2021/01/30 10:23:34;;;;;;;3.53;1.93;;;12.20;63.60;;;;;;6184841;23;20422;-74
2021/01/30 10:26:06;;;;;;;6.80;2.70;;;12.10;64.30;;;;;;6183337;23;20405;-74
2021/01/30 10:28:51;;;;;;;9.23;3.20;;;12.10;63.90;;;;;;6184117;23;20925;-73
2021/01/30 10:31:23;;;;;;;6.67;2.77;;;12.10;64.40;;;;;;6184590;23;20450;-73
2021/01/30 10:33:55;;;;;;;7.17;2.67;;;12.20;64.80;;;;;;6184353;23;20413;-74
2021/01/30 10:36:23;;;;;;;6.03;2.03;;;12.20;64.70;;;;;;6184898;23;20411;-73
2021/01/30 10:39:01;;;;;;;7.47;2.47;;;12.20;64.80;;;;;;6184641;23;20425;-73
2021/01/30 10:41:30;;;;;;;6.53;2.70;;;12.20;64.90;;;;;;6185471;23;20784;-73
2021/01/30 10:44:01;;;;;;;3.10;2.70;;;12.20;65.50;;;;;;6184762;23;20414;-73
2021/01/30 10:46:33;;;;;;;13.97;2.73;;;12.20;65.70;;;;;;6184525;23;20418;-73
2021/01/30 10:49:06;;;;;;;4.83;2.40;;;12.20;65.60;;;;;;6185112;23;20420;-74
2021/01/30 10:51:34;;;;;;;8.90;2.90;;;12.20;66.10;;;;;;6184446;23;20512;-73
2021/01/30 10:54:27;;;;;;;5.57;2.47;;;12.30;66.30;;;;;;6182653;23;20927;-73
2021/01/30 10:57:25;;;;;;;4.97;2.80;;;12.30;66.40;;;;;;6156717;23;20418;-73
2021/01/30 10:59:56;;;;;;;9.17;3.17;;;12.40;66.60;;;;;;6174982;23;20414;-73
2021/01/30 11:02:39;;;;;;;7.20;2.77;;;12.40;66.80;;;;;;6184790;23;20406;-73
2021/01/30 11:05:23;;;;;;;9.80;3.20;;;12.50;66.60;;;;;;6184397;23;20908;-73
2021/01/30 11:07:51;;;;;;;6.13;2.63;;;12.50;66.80;;;;;;6184850;23;20418;-73
2021/01/30 11:10:26;;;;;;;5.83;2.10;;;12.50;66.90;;;;;;6183755;23;20496;-74
2021/01/30 11:12:54;;;;;;;9.23;2.60;;;12.60;67.10;;;;;;6184592;23;20748;-73
2021/01/30 11:15:23;;;;;;;3.40;2.03;;;12.50;67.00;;;;;;6184696;23;20414;-73
2021/01/30 11:17:51;;;;;;;4.10;2.17;;;12.40;66.60;;;;;;6185048;23;20824;-74
2021/01/30 11:20:39;;;;;;;5.87;2.23;;;12.40;67.30;;;;;;6182747;23;20422;-73
2021/01/30 11:23:06;;;;;;;6.80;2.50;;;12.40;67.40;;;;;;6184451;23;20955;-73
2021/01/30 11:25:37;;;;;;;8.40;3.57;;;12.40;67.20;;;;;;6184538;23;20410;-73
2021/01/30 11:28:04;;;;;;;3.63;3.23;;;12.40;67.30;;;;;;6184677;23;20414;-73
2021/01/30 11:30:31;;;;;;;6.60;2.33;;;12.40;67.40;;;;;;6184368;23;20504;-73
2021/01/30 11:33:01;;;;;;;5.70;2.43;;;12.40;67.90;;;;;;6184259;23;20421;-73
2021/01/30 11:35:33;;;;;;;7.20;2.33;;;12.40;68.20;;;;;;6183719;23;20444;-73
2021/01/30 11:38:03;;;;;;;5.83;2.30;;;12.40;68.10;;;;;;6184418;23;20887;-73
2021/01/30 11:40:29;;;;;;;5.07;2.50;;;12.40;68.00;;;;;;6184113;23;20775;-74
2021/01/30 11:42:57;;;;;;;7.47;2.50;;;12.40;68.00;;;;;;6184154;23;20414;-73
2021/01/30 11:45:23;;;;;;;3.93;2.20;;;12.30;68.00;;;;;;6185708;23;20489;-73
2021/01/30 11:47:50;;;;;;;8.10;2.40;;;12.30;68.40;;;;;;6184199;23;20468;-74
2021/01/30 11:50:17;;;;;;;4.43;2.27;;;12.40;68.70;;;;;;6186154;23;20438;-74
2021/01/30 11:52:43;;;;;;;5.77;2.33;;;12.40;68.70;;;;;;6186764;23;20418;-73
2021/01/30 11:55:11;;;;;;;2.67;1.97;;;12.50;68.20;;;;;;6186033;23;20414;-73
2021/01/30 11:57:37;;;;;;;6.60;2.40;;;12.40;68.20;;;;;;6185903;23;20414;-73
2021/01/30 12:00:11;;;;;;;3.03;2.13;;;12.40;68.50;;;;;;6186303;23;20418;-74
2021/01/30 12:02:40;;;;;;;8.93;1.93;;;12.40;67.70;;;;;;6186036;23;20916;-74
2021/01/30 12:05:11;;;;;;;4.00;2.13;;;12.30;68.00;;;;;;6185464;23;20410;-73
2021/01/30 12:07:37;;;;;;;3.73;1.70;;;12.20;67.90;;;;;;6185615;23;20434;-73
2021/01/30 12:10:06;;;;;;;4.70;2.17;;;12.10;68.00;;;;;;6184746;23;20438;-73
2021/01/30 12:12:32;;;;;;;3.20;2.30;;;12.10;68.40;;;;;;6183929;23;20414;-74
2021/01/30 12:14:59;;;;;;;3.63;1.60;;;12.00;68.30;;;;;;6185947;23;20414;-73
2021/01/30 12:17:36;;;;;;;4.43;1.70;;;11.90;68.20;;;;;;6186405;23;20488;-73
2021/01/30 12:20:05;;;;;;;7.50;1.80;;;11.90;68.50;;;;;;6185778;23;20468;-73
2021/01/30 12:22:31;;;;;;;8.83;2.30;;;11.70;68.50;;;;;;6186293;23;20421;-73
2021/01/30 12:24:58;;;;;;;3.23;2.20;;;11.60;69.20;;;;;;6186137;23;20759;-73
2021/01/30 12:27:26;;;;;;;4.63;2.07;;;11.60;69.90;;;;;;6186042;23;20417;-73
2021/01/30 12:29:52;;;;;;;3.60;2.30;;;11.60;70.50;;;;;;6186215;23;20422;-73
2021/01/30 12:32:19;;;;;;;10.13;2.67;;;11.60;70.90;;;;;;6185751;23;20966;-73
2021/01/30 12:34:46;;;;;;;8.73;2.73;;;11.60;71.30;;;;;;6185780;23;20410;-73
2021/01/30 12:37:13;;;;;;;2.73;2.20;;;11.60;71.60;;;;;;6185657;23;20904;-73
2021/01/30 12:39:39;;;;;;;5.03;2.53;;;11.60;72.30;;;;;;6183814;23;20424;-73
2021/01/30 12:42:06;;;;;;;6.30;2.47;;;11.60;72.70;;;;;;6185892;23;20418;-73
2021/01/30 12:44:33;;;;;;;6.33;2.63;;;11.60;73.10;;;;;;6185657;23;20904;-73
2021/01/30 12:46:59;;;;;;;7.97;3.73;;;11.60;73.50;;;;;;6186021;23;20414;-73
2021/01/30 12:49:26;;;;;;;6.50;3.00;;;11.70;73.30;;;;;;6185959;23;20795;-73
2021/01/30 12:51:53;;;;;;;3.87;2.43;;;11.70;73.20;;;;;;6185366;23;20453;-73
2021/01/30 12:54:22;;;;;;;5.87;2.97;;;11.70;73.30;;;;;;6185515;23;20493;-73
2021/01/30 12:56:49;;;;;;;5.13;3.10;;;11.80;73.70;;;;;;6185237;23;20912;-73
2021/01/30 12:59:15;;;;;;;9.83;2.47;;;11.80;73.50;;;;;;6185516;23;20414;-73
2021/01/30 13:01:42;;;;;;;4.60;2.80;;;11.80;73.20;;;;;;6185383;23;20414;-74
2021/01/30 13:04:09;;;;;;;2.93;2.37;;;11.70;73.50;;;;;;6185556;23;20421;-73
2021/01/30 13:06:35;;;;;;;10.40;2.50;;;11.70;73.80;;;;;;6183308;23;20414;-74
2021/01/30 13:09:03;;;;;;;4.77;2.33;;;11.70;73.20;;;;;;6185654;23;20433;-74
2021/01/30 13:11:30;;;;;;;8.03;3.13;;;11.60;73.10;;;;;;6185800;23;20478;-73
2021/01/30 13:13:56;;;;;;;3.97;2.60;;;11.60;73.40;;;;;;6185334;23;20915;-73